sensor_id;sensor_type;location;lat;lon;timestamp;P1;durP1;ratioP1;P2;durP2;ratioP2
59145;SDS011;44928;53.074;6.646;2023-03-31T00:00:28;18.65;;;4.22;;
59145;SDS011;44928;53.074;6.646;2023-03-31T00:02:55;25.75;;;4.60;;
59145;SDS011;44928;53.074;6.646;2023-03-31T00:05:22;20.83;;;4.20;;
59145;SDS011;44928;53.074;6.646;2023-03-31T00:07:52;28.25;;;5.40;;
59145;SDS011;44928;53.074;6.646;2023-03-31T00:10:26;23.38;;;4.90;;
59145;SDS011;44928;53.074;6.646;2023-03-31T00:12:52;23.05;;;3.97;;
59145;SDS011;44928;53.074;6.646;2023-03-31T00:15:18;24.92;;;4.45;;
59145;SDS011;44928;53.074;6.646;2023-03-31T00:17:45;25.95;;;4.72;;
59145;SDS011;44928;53.074;6.646;2023-03-31T00:20:11;22.08;;;4.18;;
59145;SDS011;44928;53.074;6.646;2023-03-31T00:22:38;28.38;;;5.90;;
59145;SDS011;44928;53.074;6.646;2023-03-31T00:25:07;21.45;;;4.18;;
59145;SDS011;44928;53.074;6.646;2023-03-31T00:27:35;26.60;;;4.50;;
59145;SDS011;44928;53.074;6.646;2023-03-31T00:30:01;19.60;;;4.30;;
59145;SDS011;44928;53.074;6.646;2023-03-31T00:32:27;27.13;;;4.88;;
59145;SDS011;44928;53.074;6.646;2023-03-31T00:34:52;24.73;;;5.35;;
59145;SDS011;44928;53.074;6.646;2023-03-31T00:37:18;21.98;;;4.75;;
59145;SDS011;44928;53.074;6.646;2023-03-31T00:39:44;25.73;;;5.65;;
59145;SDS011;44928;53.074;6.646;2023-03-31T00:42:10;19.88;;;4.70;;
59145;SDS011;44928;53.074;6.646;2023-03-31T00:47:42;25.98;;;4.80;;
59145;SDS011;44928;53.074;6.646;2023-03-31T00:50:16;23.48;;;4.32;;
59145;SDS011;44928;53.074;6.646;2023-03-31T00:52:56;19.25;;;4.50;;
59145;SDS011;44928;53.074;6.646;2023-03-31T00:55:32;18.33;;;4.38;;
59145;SDS011;44928;53.074;6.646;2023-03-31T00:58:01;24.63;;;3.97;;
59145;SDS011;44928;53.074;6.646;2023-03-31T01:00:30;21.75;;;4.50;;
59145;SDS011;44928;53.074;6.646;2023-03-31T01:02:57;20.42;;;4.45;;
59145;SDS011;44928;53.074;6.646;2023-03-31T01:05:35;20.38;;;4.20;;
59145;SDS011;44928;53.074;6.646;2023-03-31T01:08:08;19.63;;;4.38;;
59145;SDS011;44928;53.074;6.646;2023-03-31T01:10:39;22.48;;;4.30;;
59145;SDS011;44928;53.074;6.646;2023-03-31T01:13:08;17.23;;;2.95;;
59145;SDS011;44928;53.074;6.646;2023-03-31T01:15:37;18.88;;;3.33;;
59145;SDS011;44928;53.074;6.646;2023-03-31T01:18:03;21.10;;;4.50;;
59145;SDS011;44928;53.074;6.646;2023-03-31T01:20:35;24.65;;;4.47;;
59145;SDS011;44928;53.074;6.646;2023-03-31T01:47:53;16.40;;;3.75;;
59145;SDS011;44928;53.074;6.646;2023-03-31T01:56:45;15.38;;;3.22;;
59145;SDS011;44928;53.074;6.646;2023-03-31T02:02:27;16.92;;;3.42;;
59145;SDS011;44928;53.074;6.646;2023-03-31T02:05:01;17.48;;;3.42;;
59145;SDS011;44928;53.074;6.646;2023-03-31T02:07:38;18.17;;;3.90;;
59145;SDS011;44928;53.074;6.646;2023-03-31T02:10:10;15.32;;;3.25;;
59145;SDS011;44928;53.074;6.646;2023-03-31T02:12:38;20.13;;;3.55;;
59145;SDS011;44928;53.074;6.646;2023-03-31T02:15:07;18.00;;;3.45;;
59145;SDS011;44928;53.074;6.646;2023-03-31T02:17:36;17.95;;;3.28;;
59145;SDS011;44928;53.074;6.646;2023-03-31T02:20:11;18.92;;;3.17;;
59145;SDS011;44928;53.074;6.646;2023-03-31T02:22:40;20.70;;;3.58;;
59145;SDS011;44928;53.074;6.646;2023-03-31T02:25:10;17.75;;;3.47;;
59145;SDS011;44928;53.074;6.646;2023-03-31T02:27:41;20.35;;;3.80;;
59145;SDS011;44928;53.074;6.646;2023-03-31T02:30:08;19.52;;;3.70;;
59145;SDS011;44928;53.074;6.646;2023-03-31T02:32:37;17.23;;;3.47;;
59145;SDS011;44928;53.074;6.646;2023-03-31T02:35:05;16.77;;;3.15;;
59145;SDS011;44928;53.074;6.646;2023-03-31T02:37:38;16.48;;;3.25;;
59145;SDS011;44928;53.074;6.646;2023-03-31T02:40:06;15.77;;;3.10;;
59145;SDS011;44928;53.074;6.646;2023-03-31T02:42:40;16.08;;;3.28;;
59145;SDS011;44928;53.074;6.646;2023-03-31T02:45:52;19.02;;;3.60;;
59145;SDS011;44928;53.074;6.646;2023-03-31T02:48:14;17.92;;;3.22;;
59145;SDS011;44928;53.074;6.646;2023-03-31T03:04:45;19.15;;;4.10;;
59145;SDS011;44928;53.074;6.646;2023-03-31T03:12:32;21.02;;;3.13;;
59145;SDS011;44928;53.074;6.646;2023-03-31T03:15:20;17.80;;;3.58;;
59145;SDS011;44928;53.074;6.646;2023-03-31T03:17:52;17.13;;;3.67;;
59145;SDS011;44928;53.074;6.646;2023-03-31T03:20:20;17.13;;;3.55;;
59145;SDS011;44928;53.074;6.646;2023-03-31T03:22:46;17.40;;;3.40;;
59145;SDS011;44928;53.074;6.646;2023-03-31T03:25:13;14.98;;;3.28;;
59145;SDS011;44928;53.074;6.646;2023-03-31T03:27:41;14.55;;;3.10;;
59145;SDS011;44928;53.074;6.646;2023-03-31T03:30:08;16.73;;;3.97;;
59145;SDS011;44928;53.074;6.646;2023-03-31T03:32:36;16.60;;;3.67;;
59145;SDS011;44928;53.074;6.646;2023-03-31T03:35:03;16.10;;;3.10;;
59145;SDS011;44928;53.074;6.646;2023-03-31T03:37:31;14.07;;;2.90;;
59145;SDS011;44928;53.074;6.646;2023-03-31T03:39:56;15.13;;;3.35;;
59145;SDS011;44928;53.074;6.646;2023-03-31T03:42:22;13.57;;;3.22;;
59145;SDS011;44928;53.074;6.646;2023-03-31T03:44:48;14.13;;;3.38;;
59145;SDS011;44928;53.074;6.646;2023-03-31T03:47:14;12.82;;;3.20;;
59145;SDS011;44928;53.074;6.646;2023-03-31T03:49:40;13.45;;;3.22;;
59145;SDS011;44928;53.074;6.646;2023-03-31T03:52:06;11.55;;;3.83;;
59145;SDS011;44928;53.074;6.646;2023-03-31T03:54:32;16.40;;;3.72;;
59145;SDS011;44928;53.074;6.646;2023-03-31T03:56:58;12.20;;;3.67;;
59145;SDS011;44928;53.074;6.646;2023-03-31T03:59:24;14.30;;;3.72;;
59145;SDS011;44928;53.074;6.646;2023-03-31T04:01:49;13.15;;;3.80;;
59145;SDS011;44928;53.074;6.646;2023-03-31T04:04:16;11.90;;;3.10;;
59145;SDS011;44928;53.074;6.646;2023-03-31T04:06:42;12.35;;;3.45;;
59145;SDS011;44928;53.074;6.646;2023-03-31T04:09:08;11.82;;;3.78;;
59145;SDS011;44928;53.074;6.646;2023-03-31T04:11:34;12.25;;;3.75;;
59145;SDS011;44928;53.074;6.646;2023-03-31T04:14:00;14.20;;;3.85;;
59145;SDS011;44928;53.074;6.646;2023-03-31T04:16:26;12.38;;;3.60;;
59145;SDS011;44928;53.074;6.646;2023-03-31T04:18:52;13.38;;;3.95;;
59145;SDS011;44928;53.074;6.646;2023-03-31T04:21:21;14.25;;;4.22;;
59145;SDS011;44928;53.074;6.646;2023-03-31T04:23:51;14.63;;;4.13;;
59145;SDS011;44928;53.074;6.646;2023-03-31T04:26:30;12.50;;;4.28;;
59145;SDS011;44928;53.074;6.646;2023-03-31T04:29:07;13.68;;;4.05;;
59145;SDS011;44928;53.074;6.646;2023-03-31T04:31:34;14.57;;;4.20;;
59145;SDS011;44928;53.074;6.646;2023-03-31T04:34:03;13.07;;;4.38;;
59145;SDS011;44928;53.074;6.646;2023-03-31T04:36:33;12.35;;;4.57;;
59145;SDS011;44928;53.074;6.646;2023-03-31T04:38:59;12.57;;;4.43;;
59145;SDS011;44928;53.074;6.646;2023-03-31T04:41:25;13.40;;;4.72;;
59145;SDS011;44928;53.074;6.646;2023-03-31T04:43:51;12.25;;;4.60;;
59145;SDS011;44928;53.074;6.646;2023-03-31T04:46:18;13.48;;;4.43;;
59145;SDS011;44928;53.074;6.646;2023-03-31T04:48:43;13.73;;;4.43;;
59145;SDS011;44928;53.074;6.646;2023-03-31T04:51:09;18.00;;;4.90;;
59145;SDS011;44928;53.074;6.646;2023-03-31T04:53:35;13.23;;;4.35;;
59145;SDS011;44928;53.074;6.646;2023-03-31T04:56:01;13.43;;;4.88;;
59145;SDS011;44928;53.074;6.646;2023-03-31T04:58:28;18.08;;;5.05;;
59145;SDS011;44928;53.074;6.646;2023-03-31T05:00:53;13.80;;;5.18;;
59145;SDS011;44928;53.074;6.646;2023-03-31T05:03:19;12.80;;;4.32;;
59145;SDS011;44928;53.074;6.646;2023-03-31T05:05:45;17.50;;;5.07;;
59145;SDS011;44928;53.074;6.646;2023-03-31T05:08:11;17.27;;;4.72;;
59145;SDS011;44928;53.074;6.646;2023-03-31T05:10:37;13.63;;;4.28;;
59145;SDS011;44928;53.074;6.646;2023-03-31T05:13:02;12.65;;;4.65;;
59145;SDS011;44928;53.074;6.646;2023-03-31T05:15:28;13.85;;;4.57;;
59145;SDS011;44928;53.074;6.646;2023-03-31T05:17:54;13.13;;;4.40;;
59145;SDS011;44928;53.074;6.646;2023-03-31T05:20:22;12.25;;;4.28;;
59145;SDS011;44928;53.074;6.646;2023-03-31T05:22:48;15.88;;;4.47;;
59145;SDS011;44928;53.074;6.646;2023-03-31T05:25:15;14.85;;;4.18;;
59145;SDS011;44928;53.074;6.646;2023-03-31T05:27:43;14.93;;;4.20;;
59145;SDS011;44928;53.074;6.646;2023-03-31T05:30:13;15.50;;;3.95;;
59145;SDS011;44928;53.074;6.646;2023-03-31T05:32:39;13.98;;;3.80;;
59145;SDS011;44928;53.074;6.646;2023-03-31T05:35:06;10.75;;;3.67;;
59145;SDS011;44928;53.074;6.646;2023-03-31T05:37:33;12.57;;;3.97;;
59145;SDS011;44928;53.074;6.646;2023-03-31T05:39:58;15.02;;;3.72;;
59145;SDS011;44928;53.074;6.646;2023-03-31T05:42:24;15.30;;;3.88;;
59145;SDS011;44928;53.074;6.646;2023-03-31T05:44:50;13.60;;;3.97;;
59145;SDS011;44928;53.074;6.646;2023-03-31T05:47:16;12.50;;;3.90;;
59145;SDS011;44928;53.074;6.646;2023-03-31T05:49:42;11.27;;;3.60;;
59145;SDS011;44928;53.074;6.646;2023-03-31T05:52:08;13.13;;;3.40;;
59145;SDS011;44928;53.074;6.646;2023-03-31T05:54:34;11.73;;;3.60;;
59145;SDS011;44928;53.074;6.646;2023-03-31T05:57:00;13.02;;;3.45;;
59145;SDS011;44928;53.074;6.646;2023-03-31T05:59:26;11.13;;;3.25;;
59145;SDS011;44928;53.074;6.646;2023-03-31T06:01:52;13.02;;;3.50;;
59145;SDS011;44928;53.074;6.646;2023-03-31T06:04:17;10.70;;;3.30;;
59145;SDS011;44928;53.074;6.646;2023-03-31T06:06:43;11.13;;;3.30;;
59145;SDS011;44928;53.074;6.646;2023-03-31T06:09:10;10.85;;;3.55;;
59145;SDS011;44928;53.074;6.646;2023-03-31T06:11:36;14.10;;;3.72;;
59145;SDS011;44928;53.074;6.646;2023-03-31T06:14:02;12.00;;;3.80;;
59145;SDS011;44928;53.074;6.646;2023-03-31T06:16:28;11.23;;;3.60;;
59145;SDS011;44928;53.074;6.646;2023-03-31T06:18:54;14.27;;;3.92;;
59145;SDS011;44928;53.074;6.646;2023-03-31T06:21:20;12.65;;;3.47;;
59145;SDS011;44928;53.074;6.646;2023-03-31T06:23:46;12.13;;;3.47;;
59145;SDS011;44928;53.074;6.646;2023-03-31T06:26:13;10.75;;;3.42;;
59145;SDS011;44928;53.074;6.646;2023-03-31T06:28:43;12.63;;;3.08;;
59145;SDS011;44928;53.074;6.646;2023-03-31T06:31:11;14.70;;;3.97;;
59145;SDS011;44928;53.074;6.646;2023-03-31T06:33:39;12.13;;;3.63;;
59145;SDS011;44928;53.074;6.646;2023-03-31T06:36:06;10.82;;;3.40;;
59145;SDS011;44928;53.074;6.646;2023-03-31T06:38:33;11.27;;;3.60;;
59145;SDS011;44928;53.074;6.646;2023-03-31T06:41:01;12.60;;;3.55;;
59145;SDS011;44928;53.074;6.646;2023-03-31T06:43:27;10.40;;;3.05;;
59145;SDS011;44928;53.074;6.646;2023-03-31T06:45:53;10.00;;;3.28;;
59145;SDS011;44928;53.074;6.646;2023-03-31T06:48:19;9.18;;;3.20;;
59145;SDS011;44928;53.074;6.646;2023-03-31T06:50:46;9.68;;;3.47;;
59145;SDS011;44928;53.074;6.646;2023-03-31T06:53:12;12.57;;;3.30;;
59145;SDS011;44928;53.074;6.646;2023-03-31T06:55:37;11.55;;;3.42;;
59145;SDS011;44928;53.074;6.646;2023-03-31T06:58:04;9.68;;;3.05;;
59145;SDS011;44928;53.074;6.646;2023-03-31T07:00:30;11.57;;;3.85;;
59145;SDS011;44928;53.074;6.646;2023-03-31T07:02:57;9.45;;;3.95;;
59145;SDS011;44928;53.074;6.646;2023-03-31T07:05:23;12.60;;;4.30;;
59145;SDS011;44928;53.074;6.646;2023-03-31T07:07:52;11.95;;;4.95;;
59145;SDS011;44928;53.074;6.646;2023-03-31T07:10:19;11.50;;;5.28;;
59145;SDS011;44928;53.074;6.646;2023-03-31T07:12:44;10.30;;;4.97;;
59145;SDS011;44928;53.074;6.646;2023-03-31T07:15:10;12.60;;;6.03;;
59145;SDS011;44928;53.074;6.646;2023-03-31T07:17:36;12.45;;;4.22;;
59145;SDS011;44928;53.074;6.646;2023-03-31T07:20:06;11.73;;;4.90;;
59145;SDS011;44928;53.074;6.646;2023-03-31T07:22:39;12.38;;;4.55;;
59145;SDS011;44928;53.074;6.646;2023-03-31T07:25:07;12.68;;;4.30;;
59145;SDS011;44928;53.074;6.646;2023-03-31T07:27:34;11.05;;;3.53;;
59145;SDS011;44928;53.074;6.646;2023-03-31T07:30:00;10.43;;;3.92;;
59145;SDS011;44928;53.074;6.646;2023-03-31T07:32:26;14.13;;;3.83;;
59145;SDS011;44928;53.074;6.646;2023-03-31T07:34:52;9.45;;;3.58;;
59145;SDS011;44928;53.074;6.646;2023-03-31T07:37:18;15.20;;;4.07;;
59145;SDS011;44928;53.074;6.646;2023-03-31T07:39:43;9.43;;;3.20;;
59145;SDS011;44928;53.074;6.646;2023-03-31T07:42:09;8.65;;;2.40;;
59145;SDS011;44928;53.074;6.646;2023-03-31T07:44:35;8.60;;;2.60;;
59145;SDS011;44928;53.074;6.646;2023-03-31T07:47:01;10.52;;;2.65;;
59145;SDS011;44928;53.074;6.646;2023-03-31T07:49:32;9.63;;;2.67;;
59145;SDS011;44928;53.074;6.646;2023-03-31T07:51:59;10.32;;;2.60;;
59145;SDS011;44928;53.074;6.646;2023-03-31T07:54:25;9.32;;;2.60;;
59145;SDS011;44928;53.074;6.646;2023-03-31T07:56:51;10.35;;;2.35;;
59145;SDS011;44928;53.074;6.646;2023-03-31T07:59:17;11.35;;;2.70;;
59145;SDS011;44928;53.074;6.646;2023-03-31T08:01:43;9.02;;;2.83;;
59145;SDS011;44928;53.074;6.646;2023-03-31T08:04:10;9.57;;;2.40;;
59145;SDS011;44928;53.074;6.646;2023-03-31T08:06:36;9.48;;;2.63;;
59145;SDS011;44928;53.074;6.646;2023-03-31T08:09:03;10.93;;;2.50;;
59145;SDS011;44928;53.074;6.646;2023-03-31T08:11:31;9.88;;;2.53;;
59145;SDS011;44928;53.074;6.646;2023-03-31T08:13:57;9.65;;;2.20;;
59145;SDS011;44928;53.074;6.646;2023-03-31T08:16:22;11.27;;;3.03;;
59145;SDS011;44928;53.074;6.646;2023-03-31T08:18:48;9.20;;;2.70;;
59145;SDS011;44928;53.074;6.646;2023-03-31T08:21:14;12.52;;;2.55;;
59145;SDS011;44928;53.074;6.646;2023-03-31T08:23:40;10.18;;;3.25;;
59145;SDS011;44928;53.074;6.646;2023-03-31T08:28:36;9.65;;;2.90;;
59145;SDS011;44928;53.074;6.646;2023-03-31T08:31:03;10.40;;;2.97;;
59145;SDS011;44928;53.074;6.646;2023-03-31T08:33:30;9.45;;;2.78;;
59145;SDS011;44928;53.074;6.646;2023-03-31T08:36:00;10.95;;;3.10;;
59145;SDS011;44928;53.074;6.646;2023-03-31T08:38:27;11.55;;;2.80;;
59145;SDS011;44928;53.074;6.646;2023-03-31T08:40:57;7.70;;;2.80;;
59145;SDS011;44928;53.074;6.646;2023-03-31T08:43:26;11.13;;;3.00;;
59145;SDS011;44928;53.074;6.646;2023-03-31T08:45:56;10.60;;;3.03;;
59145;SDS011;44928;53.074;6.646;2023-03-31T08:48:25;9.55;;;2.83;;
59145;SDS011;44928;53.074;6.646;2023-03-31T08:51:16;13.30;;;3.27;;
59145;SDS011;44928;53.074;6.646;2023-03-31T08:53:46;10.90;;;2.80;;
59145;SDS011;44928;53.074;6.646;2023-03-31T08:56:23;10.77;;;3.00;;
59145;SDS011;44928;53.074;6.646;2023-03-31T08:58:51;9.48;;;2.70;;
59145;SDS011;44928;53.074;6.646;2023-03-31T09:09:04;9.07;;;2.92;;
59145;SDS011;44928;53.074;6.646;2023-03-31T09:11:49;10.80;;;2.75;;
59145;SDS011;44928;53.074;6.646;2023-03-31T09:14:39;12.73;;;3.00;;
59145;SDS011;44928;53.074;6.646;2023-03-31T09:17:19;9.38;;;2.75;;
59145;SDS011;44928;53.074;6.646;2023-03-31T09:20:23;10.73;;;3.20;;
59145;SDS011;44928;53.074;6.646;2023-03-31T09:22:46;11.75;;;3.55;;
59145;SDS011;44928;53.074;6.646;2023-03-31T09:25:24;9.15;;;3.00;;
59145;SDS011;44928;53.074;6.646;2023-03-31T09:27:53;12.65;;;3.40;;
59145;SDS011;44928;53.074;6.646;2023-03-31T09:30:29;10.90;;;2.85;;
59145;SDS011;44928;53.074;6.646;2023-03-31T09:35:41;8.98;;;2.47;;
59145;SDS011;44928;53.074;6.646;2023-03-31T09:38:11;9.65;;;3.08;;
59145;SDS011;44928;53.074;6.646;2023-03-31T09:43:05;10.90;;;2.75;;
59145;SDS011;44928;53.074;6.646;2023-03-31T09:45:33;10.98;;;2.72;;
59145;SDS011;44928;53.074;6.646;2023-03-31T09:48:00;11.23;;;3.05;;
59145;SDS011;44928;53.074;6.646;2023-03-31T09:50:39;11.02;;;3.42;;
59145;SDS011;44928;53.074;6.646;2023-03-31T09:56:02;10.38;;;3.25;;
59145;SDS011;44928;53.074;6.646;2023-03-31T09:58:39;9.63;;;3.25;;
59145;SDS011;44928;53.074;6.646;2023-03-31T10:01:07;9.57;;;2.58;;
59145;SDS011;44928;53.074;6.646;2023-03-31T10:03:44;10.70;;;3.33;;
59145;SDS011;44928;53.074;6.646;2023-03-31T10:06:15;8.55;;;2.63;;
59145;SDS011;44928;53.074;6.646;2023-03-31T10:08:42;11.18;;;2.42;;
59145;SDS011;44928;53.074;6.646;2023-03-31T10:11:12;9.88;;;2.80;;
59145;SDS011;44928;53.074;6.646;2023-03-31T10:13:45;11.02;;;2.63;;
59145;SDS011;44928;53.074;6.646;2023-03-31T10:16:19;9.05;;;2.53;;
59145;SDS011;44928;53.074;6.646;2023-03-31T10:18:46;11.38;;;2.83;;
59145;SDS011;44928;53.074;6.646;2023-03-31T10:21:24;9.07;;;2.70;;
59145;SDS011;44928;53.074;6.646;2023-03-31T10:23:51;9.48;;;2.58;;
59145;SDS011;44928;53.074;6.646;2023-03-31T10:26:20;8.55;;;2.08;;
59145;SDS011;44928;53.074;6.646;2023-03-31T10:28:50;7.85;;;1.92;;
59145;SDS011;44928;53.074;6.646;2023-03-31T10:31:17;8.35;;;1.98;;
59145;SDS011;44928;53.074;6.646;2023-03-31T10:33:47;7.57;;;1.67;;
59145;SDS011;44928;53.074;6.646;2023-03-31T10:38:50;7.32;;;1.92;;
59145;SDS011;44928;53.074;6.646;2023-03-31T10:41:20;7.35;;;2.00;;
59145;SDS011;44928;53.074;6.646;2023-03-31T10:43:49;6.15;;;1.95;;
59145;SDS011;44928;53.074;6.646;2023-03-31T10:46:17;7.15;;;2.42;;
59145;SDS011;44928;53.074;6.646;2023-03-31T10:48:44;8.00;;;2.40;;
59145;SDS011;44928;53.074;6.646;2023-03-31T10:51:14;7.57;;;2.50;;
59145;SDS011;44928;53.074;6.646;2023-03-31T10:56:30;10.15;;;2.70;;
59145;SDS011;44928;53.074;6.646;2023-03-31T11:18:29;9.45;;;2.67;;
59145;SDS011;44928;53.074;6.646;2023-03-31T11:29:47;10.32;;;3.08;;
59145;SDS011;44928;53.074;6.646;2023-03-31T11:32:27;8.10;;;1.92;;
59145;SDS011;44928;53.074;6.646;2023-03-31T11:42:33;9.75;;;2.55;;
59145;SDS011;44928;53.074;6.646;2023-03-31T11:45:14;9.43;;;2.88;;
59145;SDS011;44928;53.074;6.646;2023-03-31T11:47:48;6.97;;;2.30;;
59145;SDS011;44928;53.074;6.646;2023-03-31T11:50:20;7.00;;;2.13;;
59145;SDS011;44928;53.074;6.646;2023-03-31T11:52:59;9.82;;;3.03;;
59145;SDS011;44928;53.074;6.646;2023-03-31T11:55:46;7.15;;;2.40;;
59145;SDS011;44928;53.074;6.646;2023-03-31T11:58:19;11.00;;;3.05;;
59145;SDS011;44928;53.074;6.646;2023-03-31T12:07:02;8.10;;;2.35;;
59145;SDS011;44928;53.074;6.646;2023-03-31T12:12:34;7.57;;;2.00;;
59145;SDS011;44928;53.074;6.646;2023-03-31T12:15:22;8.90;;;2.17;;
59145;SDS011;44928;53.074;6.646;2023-03-31T12:18:08;7.93;;;2.35;;
59145;SDS011;44928;53.074;6.646;2023-03-31T12:20:41;7.90;;;2.47;;
59145;SDS011;44928;53.074;6.646;2023-03-31T12:23:14;9.23;;;2.75;;
59145;SDS011;44928;53.074;6.646;2023-03-31T12:25:50;9.77;;;2.30;;
59145;SDS011;44928;53.074;6.646;2023-03-31T12:28:30;11.57;;;4.35;;
59145;SDS011;44928;53.074;6.646;2023-03-31T12:30:58;12.77;;;4.18;;
59145;SDS011;44928;53.074;6.646;2023-03-31T12:33:27;13.73;;;5.38;;
59145;SDS011;44928;53.074;6.646;2023-03-31T12:38:45;12.80;;;3.95;;
59145;SDS011;44928;53.074;6.646;2023-03-31T12:44:28;11.40;;;3.30;;
59145;SDS011;44928;53.074;6.646;2023-03-31T12:47:27;10.30;;;3.13;;
59145;SDS011;44928;53.074;6.646;2023-03-31T13:03:50;8.93;;;2.72;;
59145;SDS011;44928;53.074;6.646;2023-03-31T13:16:49;11.10;;;3.30;;
59145;SDS011;44928;53.074;6.646;2023-03-31T13:22:00;13.10;;;2.83;;
59145;SDS011;44928;53.074;6.646;2023-03-31T13:24:28;10.40;;;2.70;;
59145;SDS011;44928;53.074;6.646;2023-03-31T13:26:55;12.77;;;3.72;;
59145;SDS011;44928;53.074;6.646;2023-03-31T13:29:24;13.07;;;3.60;;
59145;SDS011;44928;53.074;6.646;2023-03-31T13:32:04;11.43;;;2.72;;
59145;SDS011;44928;53.074;6.646;2023-03-31T13:40:00;12.23;;;3.88;;
59145;SDS011;44928;53.074;6.646;2023-03-31T13:45:53;10.55;;;3.58;;
59145;SDS011;44928;53.074;6.646;2023-03-31T13:56:49;7.55;;;1.70;;
59145;SDS011;44928;53.074;6.646;2023-03-31T14:08:06;7.15;;;1.48;;
59145;SDS011;44928;53.074;6.646;2023-03-31T14:10:39;6.13;;;1.23;;
59145;SDS011;44928;53.074;6.646;2023-03-31T14:13:08;8.52;;;1.52;;
59145;SDS011;44928;53.074;6.646;2023-03-31T14:15:39;8.07;;;1.98;;
59145;SDS011;44928;53.074;6.646;2023-03-31T14:18:06;7.65;;;1.50;;
59145;SDS011;44928;53.074;6.646;2023-03-31T14:31:25;9.93;;;1.92;;
59145;SDS011;44928;53.074;6.646;2023-03-31T14:36:50;9.23;;;1.90;;
59145;SDS011;44928;53.074;6.646;2023-03-31T14:39:26;9.57;;;2.28;;
59145;SDS011;44928;53.074;6.646;2023-03-31T14:42:12;8.05;;;1.83;;
59145;SDS011;44928;53.074;6.646;2023-03-31T14:44:43;8.93;;;1.65;;
59145;SDS011;44928;53.074;6.646;2023-03-31T14:47:19;7.93;;;1.38;;
59145;SDS011;44928;53.074;6.646;2023-03-31T14:49:47;8.77;;;1.63;;
59145;SDS011;44928;53.074;6.646;2023-03-31T14:52:28;8.02;;;1.90;;
59145;SDS011;44928;53.074;6.646;2023-03-31T14:54:57;6.82;;;1.38;;
59145;SDS011;44928;53.074;6.646;2023-03-31T14:57:26;7.95;;;1.40;;
59145;SDS011;44928;53.074;6.646;2023-03-31T14:59:57;8.70;;;1.40;;
59145;SDS011;44928;53.074;6.646;2023-03-31T15:02:31;7.10;;;1.55;;
59145;SDS011;44928;53.074;6.646;2023-03-31T15:05:00;7.97;;;1.55;;
59145;SDS011;44928;53.074;6.646;2023-03-31T15:07:28;6.18;;;1.40;;
59145;SDS011;44928;53.074;6.646;2023-03-31T15:09:54;5.90;;;1.20;;
59145;SDS011;44928;53.074;6.646;2023-03-31T15:12:20;6.65;;;1.60;;
59145;SDS011;44928;53.074;6.646;2023-03-31T15:14:51;9.32;;;1.67;;
59145;SDS011;44928;53.074;6.646;2023-03-31T15:17:29;5.55;;;1.67;;
59145;SDS011;44928;53.074;6.646;2023-03-31T15:20:00;5.47;;;1.30;;
59145;SDS011;44928;53.074;6.646;2023-03-31T15:22:44;6.03;;;1.30;;
59145;SDS011;44928;53.074;6.646;2023-03-31T15:25:13;7.72;;;1.85;;
59145;SDS011;44928;53.074;6.646;2023-03-31T15:27:49;7.40;;;1.77;;
59145;SDS011;44928;53.074;6.646;2023-03-31T15:30:28;6.28;;;1.50;;
59145;SDS011;44928;53.074;6.646;2023-03-31T15:32:55;5.90;;;1.20;;
59145;SDS011;44928;53.074;6.646;2023-03-31T15:35:22;6.40;;;1.52;;
59145;SDS011;44928;53.074;6.646;2023-03-31T15:37:49;7.45;;;1.70;;
59145;SDS011;44928;53.074;6.646;2023-03-31T15:42:46;9.60;;;1.50;;
59145;SDS011;44928;53.074;6.646;2023-03-31T15:50:21;9.30;;;1.92;;
59145;SDS011;44928;53.074;6.646;2023-03-31T15:52:53;8.02;;;1.50;;
59145;SDS011;44928;53.074;6.646;2023-03-31T15:57:48;8.15;;;2.15;;
59145;SDS011;44928;53.074;6.646;2023-03-31T16:03:23;8.40;;;1.95;;
59145;SDS011;44928;53.074;6.646;2023-03-31T16:05:57;7.95;;;2.08;;
59145;SDS011;44928;53.074;6.646;2023-03-31T16:10:55;8.13;;;2.05;;
59145;SDS011;44928;53.074;6.646;2023-03-31T16:13:25;12.38;;;2.97;;
59145;SDS011;44928;53.074;6.646;2023-03-31T16:15:52;7.78;;;1.42;;
59145;SDS011;44928;53.074;6.646;2023-03-31T16:20:53;8.85;;;1.85;;
59145;SDS011;44928;53.074;6.646;2023-03-31T16:23:25;10.73;;;2.10;;
59145;SDS011;44928;53.074;6.646;2023-03-31T16:25:53;9.82;;;2.15;;
59145;SDS011;44928;53.074;6.646;2023-03-31T16:28:21;9.90;;;2.20;;
59145;SDS011;44928;53.074;6.646;2023-03-31T16:30:49;8.50;;;1.90;;
59145;SDS011;44928;53.074;6.646;2023-03-31T16:33:17;13.70;;;3.78;;
59145;SDS011;44928;53.074;6.646;2023-03-31T16:35:45;7.63;;;1.70;;
59145;SDS011;44928;53.074;6.646;2023-03-31T16:38:17;8.52;;;1.48;;
59145;SDS011;44928;53.074;6.646;2023-03-31T16:40:46;9.88;;;2.17;;
59145;SDS011;44928;53.074;6.646;2023-03-31T16:43:14;7.57;;;1.80;;
59145;SDS011;44928;53.074;6.646;2023-03-31T16:45:49;9.85;;;2.10;;
59145;SDS011;44928;53.074;6.646;2023-03-31T16:48:17;8.70;;;2.00;;
59145;SDS011;44928;53.074;6.646;2023-03-31T16:50:46;10.10;;;2.00;;
59145;SDS011;44928;53.074;6.646;2023-03-31T16:53:18;13.18;;;2.92;;
59145;SDS011;44928;53.074;6.646;2023-03-31T16:55:46;10.40;;;2.40;;
59145;SDS011;44928;53.074;6.646;2023-03-31T16:58:12;7.55;;;2.47;;
59145;SDS011;44928;53.074;6.646;2023-03-31T17:00:39;7.65;;;1.90;;
59145;SDS011;44928;53.074;6.646;2023-03-31T17:03:06;11.43;;;2.15;;
59145;SDS011;44928;53.074;6.646;2023-03-31T17:05:39;11.38;;;3.40;;
59145;SDS011;44928;53.074;6.646;2023-03-31T17:08:07;12.82;;;3.67;;
59145;SDS011;44928;53.074;6.646;2023-03-31T17:10:34;12.18;;;3.15;;
59145;SDS011;44928;53.074;6.646;2023-03-31T17:13:01;13.07;;;2.90;;
59145;SDS011;44928;53.074;6.646;2023-03-31T17:15:27;10.38;;;3.00;;
59145;SDS011;44928;53.074;6.646;2023-03-31T17:17:56;14.32;;;5.35;;
59145;SDS011;44928;53.074;6.646;2023-03-31T17:20:25;13.93;;;6.03;;
59145;SDS011;44928;53.074;6.646;2023-03-31T17:22:52;11.77;;;4.20;;
59145;SDS011;44928;53.074;6.646;2023-03-31T17:25:18;11.23;;;2.92;;
59145;SDS011;44928;53.074;6.646;2023-03-31T17:27:44;9.98;;;2.15;;
59145;SDS011;44928;53.074;6.646;2023-03-31T17:30:11;13.50;;;3.20;;
59145;SDS011;44928;53.074;6.646;2023-03-31T17:32:37;10.50;;;3.47;;
59145;SDS011;44928;53.074;6.646;2023-03-31T17:35:03;10.50;;;3.05;;
59145;SDS011;44928;53.074;6.646;2023-03-31T17:37:31;11.15;;;2.60;;
59145;SDS011;44928;53.074;6.646;2023-03-31T17:39:58;8.38;;;2.75;;
59145;SDS011;44928;53.074;6.646;2023-03-31T17:42:24;9.75;;;2.30;;
59145;SDS011;44928;53.074;6.646;2023-03-31T17:44:50;10.10;;;2.50;;
59145;SDS011;44928;53.074;6.646;2023-03-31T17:47:17;9.30;;;2.47;;
59145;SDS011;44928;53.074;6.646;2023-03-31T17:49:47;9.60;;;2.15;;
59145;SDS011;44928;53.074;6.646;2023-03-31T17:52:13;9.85;;;2.83;;
59145;SDS011;44928;53.074;6.646;2023-03-31T17:54:39;11.50;;;2.75;;
59145;SDS011;44928;53.074;6.646;2023-03-31T17:57:05;10.50;;;3.45;;
59145;SDS011;44928;53.074;6.646;2023-03-31T17:59:31;10.88;;;3.03;;
59145;SDS011;44928;53.074;6.646;2023-03-31T18:01:57;12.40;;;4.00;;
59145;SDS011;44928;53.074;6.646;2023-03-31T18:04:23;11.32;;;3.33;;
59145;SDS011;44928;53.074;6.646;2023-03-31T18:06:49;16.15;;;5.35;;
59145;SDS011;44928;53.074;6.646;2023-03-31T18:09:15;19.92;;;11.68;;
59145;SDS011;44928;53.074;6.646;2023-03-31T18:11:41;20.98;;;11.38;;
59145;SDS011;44928;53.074;6.646;2023-03-31T18:14:08;20.15;;;12.02;;
59145;SDS011;44928;53.074;6.646;2023-03-31T18:16:34;16.45;;;10.35;;
59145;SDS011;44928;53.074;6.646;2023-03-31T18:19:00;15.52;;;7.95;;
59145;SDS011;44928;53.074;6.646;2023-03-31T18:21:27;15.15;;;7.30;;
59145;SDS011;44928;53.074;6.646;2023-03-31T18:23:53;11.90;;;5.07;;
59145;SDS011;44928;53.074;6.646;2023-03-31T18:26:22;10.15;;;3.78;;